Main page
METAR-TAF:

METAR-TAF

Airports :

Lomé, Togo

Lomé–Tokoin International Airport

latitude: 06-10N, longitude: 001-15E, elevation: 20 m

Current weather observation

The report was made 39 minutes ago, at 21:00 UTC
Wind 6 kt from the South/Southwest
Temperature 28°C
Humidity 84%
Pressure 1012 hPa
Visibility 10 km or more
Few clouds at a height of 1200 ft

METAR: DXXX 232100Z 21006KT 9999 FEW012 28/25 Q1012 NOSIG

Time: 21:39 (21:39 UTC)

Forecast

The report was made 4 hours and 39 minutes ago, at 17:00 UTC
Forecast valid from 23 at 18 UTC to 24 at 24 UTC
Wind 10 kt from the South/Southwest
Visibility 10 km or more
Few clouds at a height of 1200 ft
Becoming
from 23 at 23 UTC to 24 at 01 UTC
Wind 5 kt from the West
Temporary
from 24 at 06 UTC to 24 at 08 UTC
Visibility: 3500 m
mist
Becoming
from 24 at 09 UTC to 24 at 11 UTC
Wind 12 kt from the South/Southwest

TAF: DXXX 231700Z 2318/2424 20010KT 9999 FEW012 BECMG 2323/2401 26005KT TEMPO 2406/2408 3500 BR BECMG 2409/2411 20012KT

Weather observations and forecasts of more than 4000 airports (METAR and TAF reports).

The available stations are represented by yellow and red dots on the map.

Hover mouse over dot to see the name of the station.

Then click to see weather observations and forecasts.

To change the map : click on the green buttons with a black cross to zoom in, on the green button with a dash to zoom out, or on the green arrows for adjacent maps.


METAR-TAF: